Falconer, NY (14733)

5:43 PM EDT on September 02, 2014 (GMT -0400)
Parts Plus/Dan Backus Memorial Weather Station | Change Station
CLOSE
Current Station
Personal Weather Station
Location: Jamestown, NY
Elevation: 1250 ft
Nearby Weather Stations

Elev 1250 ft 42.11 °N, 79.22 °W | Updated 1 minute ago

Overcast
Overcast
69.6 °F
Feels Like 69.6 °F
N
3.0
Wind Variable Wind from SE
Gusts 12.0 mph

Today
High -- | Low -- °F
--% Chance of Precip.
Yesterday
High -- | Low -- °F
Precip. -- in
6:43 AM 7:48 PM
First Quarter, 55% visible
Pressure 29.90 in
Visibility 10.0 miles
Clouds Few 1400 ft
Scattered Clouds 1900 ft
Overcast 11000 ft
Dew Point 65 °F
Humidity 85%
Rainfall 0.00 in
Snow Depth Not available.
UV 1 out of 12
Pollen 5.50 out of 12
PM2.5 Good
Flu Activity Not available.
METAR KJHW 022135Z AUTO 26010G17KT 10SM FEW014 SCT019 OVC110 19/17 A2990 RMK AO1

More Conditions Fewer Conditions

Pressure 29.90 in
Visibility 10.0 miles
Clouds Few 1400 ft
Scattered Clouds 1900 ft
Overcast 11000 ft
Dew Point 65 °F
Humidity 85%
Rainfall 0.00 in
Snow Depth Not available.
UV 1 out of 12
Pollen 5.50 out of 12
PM2.5 Good
Flu Activity Not available.
METAR KJHW 022135Z AUTO 26010G17KT 10SM FEW014 SCT019 OVC110 19/17 A2990 RMK AO1

More Conditions Fewer Conditions

10-Day Weather Forecast

Almanac

Astronomy

Sep. 02, 2014 Rise Set
Actual Time 6:43 AM EDT 7:48 PM EDT
Civil Twilight 6:14 AM EDT 8:17 PM EDT
Nautical Twilight 5:40 AM EDT 8:51 PM EDT
Astronomical Twilight 5:04 AM EDT 9:27 PM EDT
Moon 2:33 PM EDT No Moon Set
Length of Visible Light 14h 02m
Length of Day
13h 05m
Tomorrow will be 2m 43s shorter.
First Quarter, 55% of the Moon is Illuminated
Today
First Quarter
Sep 8
Full
Sep 15
Last Quarter
Sep 24
New
Oct 1
First Quarter

Today's Extremes

State Highs State Lows

Community

WunderPhotos

Upload Photos

1,749,782 photos uploaded!

Nearby

Air Quality

  Air Quality AQ Index Pollutant
Yesterday Good
OZONE
Yesterday Good
PM2.5
Current Good
PM2.5
Tuesday Good
PM2.5
Tuesday Good
OZONE
Wednesday Good
PM2.5

Snow Depth

Station Depth Elevation
No new snow has been reported.

Earthquake Activity

City Distance Mag. Time & Date
No recent earthquake activity has been reported nearby.
Minimum magnitude displayed is 2.5.

Coastal Water Temperatures

Place Temperature
Buffalo, NY 73.9 °F

Nearby Weather Stations